sensor_id;sensor_type;location;lat;lon;timestamp;pressure;altitude;pressure_sealevel;temperature;humidity
50103;BME280;35993;52.604;10.078;2022-10-31T00:01:23;101565.09;;;12.34;100.00
50103;BME280;35993;52.604;10.078;2022-10-31T00:03:49;101561.75;;;12.39;100.00
50103;BME280;35993;52.604;10.078;2022-10-31T00:06:15;101557.16;;;12.39;100.00
50103;BME280;35993;52.604;10.078;2022-10-31T00:08:47;101561.53;;;12.40;100.00
50103;BME280;35993;52.604;10.078;2022-10-31T00:11:16;101559.22;;;12.44;100.00
50103;BME280;35993;52.604;10.078;2022-10-31T00:13:42;101565.09;;;12.48;100.00
50103;BME280;35993;52.604;10.078;2022-10-31T00:16:20;101557.16;;;12.46;100.00
50103;BME280;35993;52.604;10.078;2022-10-31T00:18:50;101564.25;;;12.40;100.00
50103;BME280;35993;52.604;10.078;2022-10-31T00:21:16;101563.44;;;12.40;100.00
50103;BME280;35993;52.604;10.078;2022-10-31T00:23:41;101563.03;;;12.43;100.00
50103;BME280;35993;52.604;10.078;2022-10-31T00:26:07;101565.94;;;12.41;100.00
50103;BME280;35993;52.604;10.078;2022-10-31T00:28:33;101562.59;;;12.39;100.00
50103;BME280;35993;52.604;10.078;2022-10-31T00:31:04;101565.31;;;12.39;100.00
50103;BME280;35993;52.604;10.078;2022-10-31T00:33:30;101563.22;;;12.41;100.00
50103;BME280;35993;52.604;10.078;2022-10-31T00:35:56;101559.88;;;12.39;100.00
50103;BME280;35993;52.604;10.078;2022-10-31T00:38:22;101560.28;;;12.29;100.00
50103;BME280;35993;52.604;10.078;2022-10-31T00:40:47;101564.47;;;12.32;100.00
50103;BME280;35993;52.604;10.078;2022-10-31T00:43:13;101560.91;;;12.32;100.00
50103;BME280;35993;52.604;10.078;2022-10-31T00:45:41;101567.19;;;12.32;100.00
50103;BME280;35993;52.604;10.078;2022-10-31T00:48:06;101571.59;;;12.33;100.00
50103;BME280;35993;52.604;10.078;2022-10-31T00:50:32;101575.34;;;12.32;100.00
50103;BME280;35993;52.604;10.078;2022-10-31T00:52:58;101576.41;;;12.38;100.00
50103;BME280;35993;52.604;10.078;2022-10-31T00:55:24;101583.09;;;12.35;100.00
50103;BME280;35993;52.604;10.078;2022-10-31T00:57:50;101588.16;;;12.38;100.00
50103;BME280;35993;52.604;10.078;2022-10-31T01:00:16;101587.94;;;12.33;100.00
50103;BME280;35993;52.604;10.078;2022-10-31T01:02:42;101596.94;;;12.34;100.00
50103;BME280;35993;52.604;10.078;2022-10-31T01:05:08;101596.09;;;12.33;100.00
50103;BME280;35993;52.604;10.078;2022-10-31T01:07:36;101598.81;;;12.33;100.00
50103;BME280;35993;52.604;10.078;2022-10-31T01:10:03;101600.47;;;12.27;100.00
50103;BME280;35993;52.604;10.078;2022-10-31T01:12:29;101600.06;;;12.24;100.00
50103;BME280;35993;52.604;10.078;2022-10-31T01:14:55;101605.09;;;12.20;100.00
50103;BME280;35993;52.604;10.078;2022-10-31T01:17:21;101599.84;;;12.19;100.00
50103;BME280;35993;52.604;10.078;2022-10-31T01:19:46;101605.28;;;12.19;100.00
50103;BME280;35993;52.604;10.078;2022-10-31T01:22:12;101611.78;;;12.18;100.00
50103;BME280;35993;52.604;10.078;2022-10-31T01:24:37;101601.09;;;12.16;100.00
50103;BME280;35993;52.604;10.078;2022-10-31T01:27:03;101600.25;;;12.16;100.00
50103;BME280;35993;52.604;10.078;2022-10-31T01:29:32;101604.22;;;12.13;100.00
50103;BME280;35993;52.604;10.078;2022-10-31T01:31:58;101608.19;;;12.17;100.00
50103;BME280;35993;52.604;10.078;2022-10-31T01:34:24;101610.09;;;12.17;100.00
50103;BME280;35993;52.604;10.078;2022-10-31T01:36:50;101609.88;;;12.18;100.00
50103;BME280;35993;52.604;10.078;2022-10-31T01:39:17;101616.78;;;12.21;100.00
50103;BME280;35993;52.604;10.078;2022-10-31T01:41:52;101620.16;;;12.23;100.00
50103;BME280;35993;52.604;10.078;2022-10-31T01:47:00;101628.97;;;12.32;100.00
50103;BME280;35993;52.604;10.078;2022-10-31T01:49:33;101631.50;;;12.33;100.00
50103;BME280;35993;52.604;10.078;2022-10-31T01:52:04;101636.50;;;12.36;100.00
50103;BME280;35993;52.604;10.078;2022-10-31T01:54:34;101637.38;;;12.37;100.00
50103;BME280;35993;52.604;10.078;2022-10-31T01:57:02;101632.75;;;12.37;100.00
50103;BME280;35993;52.604;10.078;2022-10-31T01:59:34;101632.53;;;12.39;100.00
50103;BME280;35993;52.604;10.078;2022-10-31T02:02:03;101642.59;;;12.38;100.00
50103;BME280;35993;52.604;10.078;2022-10-31T02:04:30;101645.94;;;12.40;100.00
50103;BME280;35993;52.604;10.078;2022-10-31T02:07:12;101640.53;;;12.47;100.00
50103;BME280;35993;52.604;10.078;2022-10-31T02:09:40;101643.91;;;12.56;100.00
50103;BME280;35993;52.604;10.078;2022-10-31T02:12:08;101650.59;;;12.60;100.00
50103;BME280;35993;52.604;10.078;2022-10-31T02:14:36;101660.25;;;12.62;100.00
50103;BME280;35993;52.604;10.078;2022-10-31T02:17:26;101651.84;;;12.64;100.00
50103;BME280;35993;52.604;10.078;2022-10-31T02:20:06;101660.47;;;12.68;100.00
50103;BME280;35993;52.604;10.078;2022-10-31T02:37:03;101666.75;;;12.82;100.00
50103;BME280;35993;52.604;10.078;2022-10-31T02:42:15;101667.81;;;12.81;100.00
50103;BME280;35993;52.604;10.078;2022-10-31T02:44:59;101668.63;;;12.74;100.00
50103;BME280;35993;52.604;10.078;2022-10-31T02:47:33;101674.28;;;12.73;100.00
50103;BME280;35993;52.604;10.078;2022-10-31T02:50:15;101680.78;;;12.72;100.00
50103;BME280;35993;52.604;10.078;2022-10-31T02:52:42;101673.44;;;12.72;100.00
50103;BME280;35993;52.604;10.078;2022-10-31T02:58:12;101676.81;;;12.68;100.00
50103;BME280;35993;52.604;10.078;2022-10-31T03:09:25;101678.47;;;12.62;100.00
50103;BME280;35993;52.604;10.078;2022-10-31T03:12:07;101677.19;;;12.65;100.00
50103;BME280;35993;52.604;10.078;2022-10-31T03:14:52;101674.28;;;12.66;100.00
50103;BME280;35993;52.604;10.078;2022-10-31T03:17:28;101678.88;;;12.66;100.00
50103;BME280;35993;52.604;10.078;2022-10-31T03:19:59;101678.47;;;12.62;100.00
50103;BME280;35993;52.604;10.078;2022-10-31T03:22:29;101677.63;;;12.61;100.00
50103;BME280;35993;52.604;10.078;2022-10-31T03:24:59;101671.75;;;12.51;100.00
50103;BME280;35993;52.604;10.078;2022-10-31T03:27:30;101675.13;;;12.53;100.00
50103;BME280;35993;52.604;10.078;2022-10-31T03:30:01;101677.41;;;12.50;100.00
50103;BME280;35993;52.604;10.078;2022-10-31T03:32:35;101682.00;;;12.42;100.00
50103;BME280;35993;52.604;10.078;2022-10-31T03:35:05;101679.03;;;12.37;100.00
50103;BME280;35993;52.604;10.078;2022-10-31T03:37:33;101676.69;;;12.27;100.00
50103;BME280;35993;52.604;10.078;2022-10-31T03:40:02;101672.50;;;12.25;100.00
50103;BME280;35993;52.604;10.078;2022-10-31T03:42:33;101682.34;;;12.26;100.00
50103;BME280;35993;52.604;10.078;2022-10-31T03:45:08;101686.31;;;12.17;100.00
50103;BME280;35993;52.604;10.078;2022-10-31T03:48:00;101686.88;;;11.99;100.00
50103;BME280;35993;52.604;10.078;2022-10-31T03:50:30;101685.63;;;12.01;100.00
50103;BME280;35993;52.604;10.078;2022-10-31T03:53:11;101694.81;;;12.00;100.00
50103;BME280;35993;52.604;10.078;2022-10-31T03:55:49;101699.22;;;12.01;100.00
50103;BME280;35993;52.604;10.078;2022-10-31T03:59:02;101694.63;;;12.02;100.00
50103;BME280;35993;52.604;10.078;2022-10-31T04:01:32;101699.19;;;11.94;100.00
50103;BME280;35993;52.604;10.078;2022-10-31T04:04:24;101699.19;;;11.94;100.00
50103;BME280;35993;52.604;10.078;2022-10-31T04:06:52;101708.84;;;11.97;100.00
50103;BME280;35993;52.604;10.078;2022-10-31T04:09:19;101698.53;;;11.92;100.00
50103;BME280;35993;52.604;10.078;2022-10-31T04:11:51;101706.03;;;11.90;100.00
50103;BME280;35993;52.604;10.078;2022-10-31T04:14:57;101709.09;;;11.74;100.00
50103;BME280;35993;52.604;10.078;2022-10-31T04:17:25;101711.56;;;11.69;100.00
50103;BME280;35993;52.604;10.078;2022-10-31T04:19:54;101709.09;;;11.74;100.00
50103;BME280;35993;52.604;10.078;2022-10-31T04:22:19;101706.56;;;11.72;100.00
50103;BME280;35993;52.604;10.078;2022-10-31T04:24:45;101708.47;;;11.72;100.00
50103;BME280;35993;52.604;10.078;2022-10-31T04:27:13;101714.03;;;11.63;100.00
50103;BME280;35993;52.604;10.078;2022-10-31T04:29:39;101714.81;;;11.51;100.00
50103;BME280;35993;52.604;10.078;2022-10-31T04:32:04;101719.38;;;11.43;100.00
50103;BME280;35993;52.604;10.078;2022-10-31T04:34:30;101725.06;;;11.48;100.00
50103;BME280;35993;52.604;10.078;2022-10-31T04:36:56;101722.25;;;11.42;100.00
50103;BME280;35993;52.604;10.078;2022-10-31T04:39:21;101727.66;;;11.35;100.00
50103;BME280;35993;52.604;10.078;2022-10-31T04:41:59;101727.44;;;11.37;100.00
50103;BME280;35993;52.604;10.078;2022-10-31T04:44:24;101733.75;;;11.37;100.00
50103;BME280;35993;52.604;10.078;2022-10-31T04:46:52;101727.66;;;11.35;100.00
50103;BME280;35993;52.604;10.078;2022-10-31T04:49:18;101730.38;;;11.35;100.00
50103;BME280;35993;52.604;10.078;2022-10-31T04:51:43;101736.91;;;11.41;100.00
50103;BME280;35993;52.604;10.078;2022-10-31T04:54:09;101740.63;;;11.33;100.00
50103;BME280;35993;52.604;10.078;2022-10-31T04:57:01;101737.94;;;11.40;100.00
50103;BME280;35993;52.604;10.078;2022-10-31T04:59:27;101738.81;;;11.47;100.00
50103;BME280;35993;52.604;10.078;2022-10-31T05:01:53;101740.34;;;11.50;100.00
50103;BME280;35993;52.604;10.078;2022-10-31T05:04:41;101742.44;;;11.54;100.00
50103;BME280;35993;52.604;10.078;2022-10-31T05:07:07;101739.28;;;11.51;100.00
50103;BME280;35993;52.604;10.078;2022-10-31T05:09:33;101742.97;;;11.43;100.00
50103;BME280;35993;52.604;10.078;2022-10-31T05:11:58;101731.28;;;11.42;100.00
50103;BME280;35993;52.604;10.078;2022-10-31T05:14:57;101736.03;;;11.34;100.00
50103;BME280;35993;52.604;10.078;2022-10-31T05:17:41;101725.09;;;11.27;100.00
50103;BME280;35993;52.604;10.078;2022-10-31T05:20:27;101715.22;;;11.19;100.00
50103;BME280;35993;52.604;10.078;2022-10-31T05:23:31;101714.84;;;11.29;100.00
50103;BME280;35993;52.604;10.078;2022-10-31T05:25:58;101715.50;;;11.31;100.00
50103;BME280;35993;52.604;10.078;2022-10-31T05:28:24;101714.84;;;11.29;100.00
50103;BME280;35993;52.604;10.078;2022-10-31T05:30:49;101716.94;;;11.27;100.00
50103;BME280;35993;52.604;10.078;2022-10-31T05:33:15;101720.66;;;11.19;100.00
50103;BME280;35993;52.604;10.078;2022-10-31T05:36:13;101721.88;;;11.17;100.00
50103;BME280;35993;52.604;10.078;2022-10-31T05:38:49;101720.19;;;11.15;100.00
50103;BME280;35993;52.604;10.078;2022-10-31T05:41:41;101720.16;;;11.09;100.00
50103;BME280;35993;52.604;10.078;2022-10-31T05:44:19;101721.94;;;11.02;100.00
50103;BME280;35993;52.604;10.078;2022-10-31T05:46:55;101724.66;;;11.02;100.00
50103;BME280;35993;52.604;10.078;2022-10-31T05:49:40;101726.94;;;10.98;100.00
50103;BME280;35993;52.604;10.078;2022-10-31T05:52:35;101730.03;;;10.95;100.00
50103;BME280;35993;52.604;10.078;2022-10-31T05:55:08;101732.31;;;10.91;100.00
50103;BME280;35993;52.604;10.078;2022-10-31T05:57:35;101728.63;;;10.77;100.00
50103;BME280;35993;52.604;10.078;2022-10-31T06:00:01;101723.94;;;10.71;100.00
50103;BME280;35993;52.604;10.078;2022-10-31T06:02:27;101726.03;;;10.69;100.00
50103;BME280;35993;52.604;10.078;2022-10-31T06:05:18;101729.78;;;10.68;100.00
50103;BME280;35993;52.604;10.078;2022-10-31T06:07:45;101741.94;;;10.72;100.00
50103;BME280;35993;52.604;10.078;2022-10-31T06:10:11;101746.13;;;10.75;100.00
50103;BME280;35993;52.604;10.078;2022-10-31T06:12:37;101746.34;;;10.73;100.00
50103;BME280;35993;52.604;10.078;2022-10-31T06:15:25;101747.16;;;10.74;100.00
50103;BME280;35993;52.604;10.078;2022-10-31T06:18:04;101747.22;;;10.80;100.00
50103;BME280;35993;52.604;10.078;2022-10-31T06:20:34;101750.03;;;10.87;100.00
50103;BME280;35993;52.604;10.078;2022-10-31T06:23:02;101742.78;;;10.94;100.00
50103;BME280;35993;52.604;10.078;2022-10-31T06:25:30;101752.56;;;10.89;100.00
50103;BME280;35993;52.604;10.078;2022-10-31T06:27:55;101761.28;;;10.84;100.00
50103;BME280;35993;52.604;10.078;2022-10-31T06:30:28;101763.34;;;10.82;100.00
50103;BME280;35993;52.604;10.078;2022-10-31T06:32:54;101766.50;;;10.86;100.00
50103;BME280;35993;52.604;10.078;2022-10-31T06:35:20;101772.84;;;10.93;100.00
50103;BME280;35993;52.604;10.078;2022-10-31T06:37:53;101772.28;;;10.97;100.00
50103;BME280;35993;52.604;10.078;2022-10-31T06:40:29;101770.78;;;10.95;100.00
50103;BME280;35993;52.604;10.078;2022-10-31T06:43:19;101783.53;;;10.94;100.00
50103;BME280;35993;52.604;10.078;2022-10-31T06:45:45;101781.47;;;10.96;100.00
50103;BME280;35993;52.604;10.078;2022-10-31T06:48:20;101785.66;;;10.99;100.00
50103;BME280;35993;52.604;10.078;2022-10-31T06:51:15;101788.59;;;10.97;100.00
50103;BME280;35993;52.604;10.078;2022-10-31T06:53:41;101797.78;;;10.96;100.00
50103;BME280;35993;52.604;10.078;2022-10-31T06:56:28;101794.84;;;10.98;100.00
50103;BME280;35993;52.604;10.078;2022-10-31T06:58:55;101790.72;;;11.02;100.00
50103;BME280;35993;52.604;10.078;2022-10-31T07:01:40;101787.81;;;11.04;100.00
50103;BME280;35993;52.604;10.078;2022-10-31T07:04:09;101792.66;;;11.08;100.00
50103;BME280;35993;52.604;10.078;2022-10-31T07:07:13;101801.94;;;11.14;100.00
50103;BME280;35993;52.604;10.078;2022-10-31T07:09:38;101797.97;;;11.17;100.00
50103;BME280;35993;52.604;10.078;2022-10-31T07:12:05;101806.38;;;11.22;100.00
50103;BME280;35993;52.604;10.078;2022-10-31T07:14:34;101802.03;;;11.27;100.00
50103;BME280;35993;52.604;10.078;2022-10-31T07:17:00;101800.44;;;11.33;100.00
50103;BME280;35993;52.604;10.078;2022-10-31T07:19:32;101810.44;;;11.32;100.00
50103;BME280;35993;52.604;10.078;2022-10-31T07:22:03;101807.53;;;11.34;100.00
50103;BME280;35993;52.604;10.078;2022-10-31T07:24:29;101805.91;;;11.40;100.00
50103;BME280;35993;52.604;10.078;2022-10-31T07:27:15;101813.66;;;11.43;100.00
50103;BME280;35993;52.604;10.078;2022-10-31T07:29:43;101804.94;;;11.47;100.00
50103;BME280;35993;52.604;10.078;2022-10-31T07:32:10;101809.59;;;11.54;100.00
50103;BME280;35993;52.604;10.078;2022-10-31T07:34:41;101808.16;;;11.58;100.00
50103;BME280;35993;52.604;10.078;2022-10-31T07:38:07;101814.50;;;11.65;100.00
50103;BME280;35993;52.604;10.078;2022-10-31T07:40:33;101810.34;;;11.69;100.00
50103;BME280;35993;52.604;10.078;2022-10-31T07:43:12;101813.50;;;11.73;100.00
50103;BME280;35993;52.604;10.078;2022-10-31T07:46:01;101809.34;;;11.77;100.00
50103;BME280;35993;52.604;10.078;2022-10-31T07:48:36;101815.25;;;11.80;100.00
50103;BME280;35993;52.604;10.078;2022-10-31T07:51:20;101816.94;;;11.82;100.00
50103;BME280;35993;52.604;10.078;2022-10-31T07:54:14;101807.94;;;11.88;100.00
50103;BME280;35993;52.604;10.078;2022-10-31T07:56:43;101814.69;;;11.92;100.00
50103;BME280;35993;52.604;10.078;2022-10-31T07:59:08;101820.41;;;11.97;100.00
50103;BME280;35993;52.604;10.078;2022-10-31T08:01:34;101822.06;;;11.98;100.00
50103;BME280;35993;52.604;10.078;2022-10-31T08:04:32;101825.25;;;12.02;100.00
50103;BME280;35993;52.604;10.078;2022-10-31T08:07:23;101823.78;;;12.06;100.00
50103;BME280;35993;52.604;10.078;2022-10-31T08:09:55;101825.47;;;12.07;100.00
50103;BME280;35993;52.604;10.078;2022-10-31T08:12:25;101831.38;;;12.10;100.00
50103;BME280;35993;52.604;10.078;2022-10-31T08:14:52;101827.16;;;12.08;100.00
50103;BME280;35993;52.604;10.078;2022-10-31T08:17:21;101823.66;;;12.14;100.00
50103;BME280;35993;52.604;10.078;2022-10-31T08:19:52;101832.72;;;12.21;100.00
50103;BME280;35993;52.604;10.078;2022-10-31T08:22:22;101824.56;;;12.28;100.00
50103;BME280;35993;52.604;10.078;2022-10-31T08:24:48;101825.19;;;12.30;100.00
50103;BME280;35993;52.604;10.078;2022-10-31T08:27:13;101834.66;;;12.34;100.00
50103;BME280;35993;52.604;10.078;2022-10-31T08:30:08;101823.56;;;12.36;100.00
50103;BME280;35993;52.604;10.078;2022-10-31T08:32:37;101822.53;;;12.37;100.00
50103;BME280;35993;52.604;10.078;2022-10-31T08:35:21;101820.63;;;12.37;100.00
50103;BME280;35993;52.604;10.078;2022-10-31T08:38:31;101821.91;;;12.41;100.00
50103;BME280;35993;52.604;10.078;2022-10-31T08:40:57;101810.84;;;12.43;100.00
50103;BME280;35993;52.604;10.078;2022-10-31T08:43:25;101821.72;;;12.43;100.00
50103;BME280;35993;52.604;10.078;2022-10-31T08:45:51;101817.75;;;12.45;100.00
50103;BME280;35993;52.604;10.078;2022-10-31T08:48:25;101814.63;;;12.49;100.00
50103;BME280;35993;52.604;10.078;2022-10-31T08:50:56;101815.69;;;12.54;100.00
50103;BME280;35993;52.604;10.078;2022-10-31T08:53:23;101810.66;;;12.58;100.00
50103;BME280;35993;52.604;10.078;2022-10-31T08:56:02;101811.53;;;12.65;100.00
50103;BME280;35993;52.604;10.078;2022-10-31T08:58:27;101810.91;;;12.70;100.00
50103;BME280;35993;52.604;10.078;2022-10-31T09:00:59;101806.53;;;12.69;100.00
50103;BME280;35993;52.604;10.078;2022-10-31T09:03:28;101798.16;;;12.70;100.00
50103;BME280;35993;52.604;10.078;2022-10-31T09:05:58;101798.16;;;12.77;100.00
50103;BME280;35993;52.604;10.078;2022-10-31T09:08:26;101799.63;;;12.79;100.00
50103;BME280;35993;52.604;10.078;2022-10-31T09:10:56;101804.03;;;12.81;100.00
50103;BME280;35993;52.604;10.078;2022-10-31T09:14:17;101796.91;;;12.86;100.00
50103;BME280;35993;52.604;10.078;2022-10-31T09:17:01;101796.31;;;12.91;100.00
50103;BME280;35993;52.604;10.078;2022-10-31T09:19:42;101800.94;;;12.97;100.00
50103;BME280;35993;52.604;10.078;2022-10-31T09:22:07;101798.44;;;13.02;100.00
50103;BME280;35993;52.604;10.078;2022-10-31T09:24:33;101793.59;;;13.04;100.00
50103;BME280;35993;52.604;10.078;2022-10-31T09:27:00;101799.31;;;13.09;100.00
50103;BME280;35993;52.604;10.078;2022-10-31T09:29:26;101802.25;;;13.15;100.00
50103;BME280;35993;52.604;10.078;2022-10-31T09:31:56;101791.97;;;13.17;100.00
50103;BME280;35993;52.604;10.078;2022-10-31T09:34:27;101793.44;;;13.19;100.00
50103;BME280;35993;52.604;10.078;2022-10-31T09:37:04;101791.78;;;13.25;100.00
50103;BME280;35993;52.604;10.078;2022-10-31T09:39:48;101799.31;;;13.30;100.00
50103;BME280;35993;52.604;10.078;2022-10-31T09:45:18;101793.91;;;13.43;100.00
50103;BME280;35993;52.604;10.078;2022-10-31T09:51:20;101804.81;;;13.50;100.00
50103;BME280;35993;52.604;10.078;2022-10-31T09:54:20;101801.25;;;13.56;100.00
50103;BME280;35993;52.604;10.078;2022-10-31T09:57:13;101807.09;;;13.46;100.00
50103;BME280;35993;52.604;10.078;2022-10-31T09:59:43;101803.13;;;13.49;100.00
50103;BME280;35993;52.604;10.078;2022-10-31T10:02:34;101797.88;;;13.54;100.00
50103;BME280;35993;52.604;10.078;2022-10-31T10:05:08;101797.03;;;13.60;100.00
50103;BME280;35993;52.604;10.078;2022-10-31T10:23:02;101782.34;;;13.81;100.00
50103;BME280;35993;52.604;10.078;2022-10-31T10:28:17;101777.28;;;13.78;100.00
50103;BME280;35993;52.604;10.078;2022-10-31T10:30:54;101773.09;;;13.75;100.00
50103;BME280;35993;52.604;10.078;2022-10-31T10:33:28;101770.81;;;13.72;100.00
50103;BME280;35993;52.604;10.078;2022-10-31T10:35:59;101762.84;;;13.71;100.00
50103;BME280;35993;52.604;10.078;2022-10-31T10:38:30;101767.84;;;13.74;100.00
50103;BME280;35993;52.604;10.078;2022-10-31T10:41:02;101765.13;;;13.74;100.00
50103;BME280;35993;52.604;10.078;2022-10-31T10:43:34;101762.41;;;13.74;100.00
50103;BME280;35993;52.604;10.078;2022-10-31T10:46:13;101763.84;;;13.76;100.00
50103;BME280;35993;52.604;10.078;2022-10-31T10:49:10;101760.69;;;13.80;100.00
50103;BME280;35993;52.604;10.078;2022-10-31T10:54:39;101765.09;;;13.87;100.00
50103;BME280;35993;52.604;10.078;2022-10-31T11:00:17;101751.84;;;13.91;100.00
50103;BME280;35993;52.604;10.078;2022-10-31T11:02:43;101759.41;;;13.96;100.00
50103;BME280;35993;52.604;10.078;2022-10-31T11:07:48;101754.78;;;14.03;100.00
50103;BME280;35993;52.604;10.078;2022-10-31T11:10:15;101747.19;;;14.05;100.00
50103;BME280;35993;52.604;10.078;2022-10-31T11:12:43;101748.25;;;14.11;100.00
50103;BME280;35993;52.604;10.078;2022-10-31T11:15:22;101748.25;;;14.11;100.00
50103;BME280;35993;52.604;10.078;2022-10-31T11:17:55;101755.38;;;14.12;100.00
50103;BME280;35993;52.604;10.078;2022-10-31T11:20:34;101742.97;;;14.16;100.00
50103;BME280;35993;52.604;10.078;2022-10-31T11:23:04;101745.03;;;14.20;100.00
50103;BME280;35993;52.604;10.078;2022-10-31T11:25:30;101736.63;;;14.22;100.00
50103;BME280;35993;52.604;10.078;2022-10-31T11:28:03;101738.75;;;14.20;100.00
50103;BME280;35993;52.604;10.078;2022-10-31T11:30:31;101727.38;;;14.23;100.00
50103;BME280;35993;52.604;10.078;2022-10-31T11:33:01;101734.94;;;14.28;100.00
50103;BME280;35993;52.604;10.078;2022-10-31T11:35:28;101731.56;;;14.32;100.00
50103;BME280;35993;52.604;10.078;2022-10-31T11:38:17;101722.47;;;14.38;100.00
50103;BME280;35993;52.604;10.078;2022-10-31T11:41:28;101716.63;;;14.35;100.00
50103;BME280;35993;52.604;10.078;2022-10-31T11:43:59;101727.94;;;14.38;100.00
50103;BME280;35993;52.604;10.078;2022-10-31T11:46:52;101720.78;;;14.44;100.00
50103;BME280;35993;52.604;10.078;2022-10-31T11:49:28;101718.66;;;14.46;100.00
50103;BME280;35993;52.604;10.078;2022-10-31T11:51:56;101720.78;;;14.44;100.00
50103;BME280;35993;52.604;10.078;2022-10-31T11:54:34;101723.06;;;14.47;100.00
50103;BME280;35993;52.604;10.078;2022-10-31T11:57:04;101714.88;;;14.47;100.00
50103;BME280;35993;52.604;10.078;2022-10-31T11:59:51;101714.66;;;14.49;100.00
50103;BME280;35993;52.604;10.078;2022-10-31T12:02:19;101707.09;;;14.51;100.00
50103;BME280;35993;52.604;10.078;2022-10-31T12:04:50;101708.75;;;14.52;100.00
50103;BME280;35993;52.604;10.078;2022-10-31T12:07:34;101704.56;;;14.49;100.00
50103;BME280;35993;52.604;10.078;2022-10-31T12:10:09;101707.09;;;14.51;100.00
50103;BME280;35993;52.604;10.078;2022-10-31T12:15:33;101695.94;;;14.52;100.00
50103;BME280;35993;52.604;10.078;2022-10-31T12:18:49;101706.03;;;14.52;100.00
50103;BME280;35993;52.604;10.078;2022-10-31T12:26:16;101690.25;;;14.54;100.00
50103;BME280;35993;52.604;10.078;2022-10-31T12:29:13;101692.56;;;14.57;100.00
50103;BME280;35993;52.604;10.078;2022-10-31T12:45:45;101670.78;;;14.75;100.00
50103;BME280;35993;52.604;10.078;2022-10-31T12:58:36;101659.75;;;14.89;100.00
50103;BME280;35993;52.604;10.078;2022-10-31T13:01:11;101662.94;;;14.86;100.00
50103;BME280;35993;52.604;10.078;2022-10-31T13:03:48;101650.78;;;14.82;100.00
50103;BME280;35993;52.604;10.078;2022-10-31T13:06:20;101655.19;;;14.83;100.00
50103;BME280;35993;52.604;10.078;2022-10-31T13:08:53;101655.19;;;14.83;100.00
50103;BME280;35993;52.604;10.078;2022-10-31T13:11:28;101651.81;;;14.81;100.00
50103;BME280;35993;52.604;10.078;2022-10-31T13:14:02;101653.50;;;14.82;100.00
50103;BME280;35993;52.604;10.078;2022-10-31T13:16:36;101647.38;;;14.86;100.00
50103;BME280;35993;52.604;10.078;2022-10-31T13:21:57;101636.88;;;14.83;100.00
50103;BME280;35993;52.604;10.078;2022-10-31T13:24:36;101635.22;;;14.82;100.00
50103;BME280;35993;52.604;10.078;2022-10-31T13:27:35;101622.84;;;14.80;100.00
50103;BME280;35993;52.604;10.078;2022-10-31T13:32:46;101608.16;;;14.74;100.00
50103;BME280;35993;52.604;10.078;2022-10-31T13:38:09;101605.03;;;14.70;100.00
50103;BME280;35993;52.604;10.078;2022-10-31T13:46:41;101585.28;;;14.68;100.00
50103;BME280;35993;52.604;10.078;2022-10-31T13:49:47;101582.78;;;14.67;100.00
50103;BME280;35993;52.604;10.078;2022-10-31T13:52:22;101573.97;;;14.65;100.00
50103;BME280;35993;52.604;10.078;2022-10-31T13:55:42;101575.44;;;14.61;100.00
50103;BME280;35993;52.604;10.078;2022-10-31T13:58:42;101573.38;;;14.56;100.00
50103;BME280;35993;52.604;10.078;2022-10-31T14:01:20;101564.19;;;14.50;100.00
50103;BME280;35993;52.604;10.078;2022-10-31T14:03:56;101567.34;;;14.47;100.00
50103;BME280;35993;52.604;10.078;2022-10-31T14:06:42;101558.91;;;14.49;100.00
50103;BME280;35993;52.604;10.078;2022-10-31T14:10:00;101554.53;;;14.48;100.00
50103;BME280;35993;52.604;10.078;2022-10-31T14:12:29;101553.69;;;14.47;100.00
50103;BME280;35993;52.604;10.078;2022-10-31T14:15:05;101550.94;;;14.47;100.00
50103;BME280;35993;52.604;10.078;2022-10-31T14:17:59;101549.72;;;14.43;100.00
50103;BME280;35993;52.604;10.078;2022-10-31T14:20:58;101547.81;;;14.43;100.00
50103;BME280;35993;52.604;10.078;2022-10-31T14:23:38;101543.44;;;14.42;100.00
50103;BME280;35993;52.604;10.078;2022-10-31T14:28:50;101541.31;;;14.45;100.00
50103;BME280;35993;52.604;10.078;2022-10-31T14:31:35;101535.44;;;14.41;100.00
50103;BME280;35993;52.604;10.078;2022-10-31T14:39:33;101525.63;;;14.33;100.00
50103;BME280;35993;52.604;10.078;2022-10-31T14:50:35;101524.31;;;14.17;100.00
50103;BME280;35993;52.604;10.078;2022-10-31T14:53:05;101531.63;;;14.17;100.00
50103;BME280;35993;52.604;10.078;2022-10-31T14:55:33;101519.66;;;14.18;100.00
50103;BME280;35993;52.604;10.078;2022-10-31T14:58:05;101517.81;;;14.12;100.00
50103;BME280;35993;52.604;10.078;2022-10-31T15:00:32;101523.72;;;14.08;100.00
50103;BME280;35993;52.604;10.078;2022-10-31T15:03:07;101522.28;;;14.06;100.00
50103;BME280;35993;52.604;10.078;2022-10-31T15:05:58;101515.59;;;14.02;100.00
50103;BME280;35993;52.604;10.078;2022-10-31T15:08:37;101521.06;;;14.02;100.00
50103;BME280;35993;52.604;10.078;2022-10-31T15:14:01;101517.28;;;13.96;100.00
50103;BME280;35993;52.604;10.078;2022-10-31T15:16:33;101509.38;;;13.88;100.00
50103;BME280;35993;52.604;10.078;2022-10-31T15:19:05;101504.97;;;13.87;100.00